sensor_id;sensor_type;location;lat;lon;timestamp;pressure;altitude;pressure_sealevel;temperature;humidity
38786;BME280;24535;45.508;12.252;2023-06-26T00:04:28;101434.56;;;28.52;40.05
38786;BME280;24535;45.508;12.252;2023-06-26T00:06:53;101436.22;;;28.53;40.63
38786;BME280;24535;45.508;12.252;2023-06-26T00:09:19;101442.69;;;28.52;40.94
38786;BME280;24535;45.508;12.252;2023-06-26T00:11:44;101447.91;;;28.54;40.40
38786;BME280;24535;45.508;12.252;2023-06-26T00:14:09;101445.19;;;28.54;40.80
38786;BME280;24535;45.508;12.252;2023-06-26T00:16:35;101446.25;;;28.53;39.48
38786;BME280;24535;45.508;12.252;2023-06-26T00:19:00;101451.84;;;28.51;39.79
38786;BME280;24535;45.508;12.252;2023-06-26T00:21:26;101449.34;;;28.50;40.18
38786;BME280;24535;45.508;12.252;2023-06-26T00:26:55;101446.81;;;28.42;40.50
38786;BME280;24535;45.508;12.252;2023-06-26T00:29:20;101447.03;;;28.40;40.39
38786;BME280;24535;45.508;12.252;2023-06-26T00:31:45;101445.56;;;28.38;40.23
38786;BME280;24535;45.508;12.252;2023-06-26T00:34:11;101447.59;;;28.35;40.28
38786;BME280;24535;45.508;12.252;2023-06-26T00:36:36;101443.41;;;28.33;40.59
38786;BME280;24535;45.508;12.252;2023-06-26T00:39:01;101452.78;;;28.30;40.55
38786;BME280;24535;45.508;12.252;2023-06-26T00:41:28;101459.47;;;28.28;40.11
38786;BME280;24535;45.508;12.252;2023-06-26T00:43:53;101459.03;;;28.24;39.87
38786;BME280;24535;45.508;12.252;2023-06-26T00:46:19;101463.78;;;28.22;39.81
38786;BME280;24535;45.508;12.252;2023-06-26T00:48:44;101460.47;;;28.20;39.66
38786;BME280;24535;45.508;12.252;2023-06-26T00:51:10;101462.75;;;28.17;39.78
38786;BME280;24535;45.508;12.252;2023-06-26T00:53:45;101463.78;;;28.16;39.78
38786;BME280;24535;45.508;12.252;2023-06-26T00:56:11;101473.97;;;28.14;39.72
38786;BME280;24535;45.508;12.252;2023-06-26T00:58:36;101466.06;;;28.12;39.75
38786;BME280;24535;45.508;12.252;2023-06-26T01:01:02;101475.19;;;28.11;40.00
38786;BME280;24535;45.508;12.252;2023-06-26T01:03:27;101475.63;;;28.08;40.60
38786;BME280;24535;45.508;12.252;2023-06-26T01:05:53;101471.22;;;28.07;40.38
38786;BME280;24535;45.508;12.252;2023-06-26T01:08:19;101482.25;;;28.05;40.47
38786;BME280;24535;45.508;12.252;2023-06-26T01:10:45;101473.69;;;28.02;40.87
38786;BME280;24535;45.508;12.252;2023-06-26T01:13:17;101476.78;;;27.99;41.15
38786;BME280;24535;45.508;12.252;2023-06-26T01:15:42;101477.22;;;27.96;41.24
38786;BME280;24535;45.508;12.252;2023-06-26T01:18:10;101466.56;;;27.94;41.27
38786;BME280;24535;45.508;12.252;2023-06-26T01:20:36;101464.25;;;27.91;41.16
38786;BME280;24535;45.508;12.252;2023-06-26T01:23:21;101470.53;;;27.92;41.34
38786;BME280;24535;45.508;12.252;2023-06-26T01:28:25;101469.66;;;27.91;41.74
38786;BME280;24535;45.508;12.252;2023-06-26T01:30:52;101470.91;;;27.89;41.85
38786;BME280;24535;45.508;12.252;2023-06-26T01:33:18;101467.75;;;27.85;42.28
38786;BME280;24535;45.508;12.252;2023-06-26T01:35:43;101461.31;;;27.86;42.33
38786;BME280;24535;45.508;12.252;2023-06-26T01:38:13;101453.00;;;27.88;42.36
38786;BME280;24535;45.508;12.252;2023-06-26T01:40:39;101458.41;;;27.88;42.01
38786;BME280;24535;45.508;12.252;2023-06-26T01:43:06;101458.81;;;27.84;42.40
38786;BME280;24535;45.508;12.252;2023-06-26T01:45:36;101455.44;;;27.82;42.10
38786;BME280;24535;45.508;12.252;2023-06-26T01:48:02;101452.50;;;27.77;42.22
38786;BME280;24535;45.508;12.252;2023-06-26T01:50:29;101452.06;;;27.74;42.90
38786;BME280;24535;45.508;12.252;2023-06-26T01:53:04;101457.00;;;27.70;42.40
38786;BME280;24535;45.508;12.252;2023-06-26T01:55:54;101451.34;;;27.65;42.91
38786;BME280;24535;45.508;12.252;2023-06-26T01:58:19;101452.56;;;27.63;43.13
38786;BME280;24535;45.508;12.252;2023-06-26T02:00:46;101455.09;;;27.64;43.52
38786;BME280;24535;45.508;12.252;2023-06-26T02:03:12;101456.56;;;27.67;43.19
38786;BME280;24535;45.508;12.252;2023-06-26T02:05:37;101460.50;;;27.64;42.81
38786;BME280;24535;45.508;12.252;2023-06-26T02:08:03;101456.53;;;27.60;42.72
38786;BME280;24535;45.508;12.252;2023-06-26T02:10:28;101457.13;;;27.55;43.42
38786;BME280;24535;45.508;12.252;2023-06-26T02:12:53;101452.91;;;27.53;43.42
38786;BME280;24535;45.508;12.252;2023-06-26T02:15:18;101457.72;;;27.51;43.68
38786;BME280;24535;45.508;12.252;2023-06-26T02:17:44;101450.16;;;27.46;43.44
38786;BME280;24535;45.508;12.252;2023-06-26T02:20:15;101454.75;;;27.46;43.94
38786;BME280;24535;45.508;12.252;2023-06-26T02:22:41;101461.63;;;27.48;43.20
38786;BME280;24535;45.508;12.252;2023-06-26T02:25:06;101462.22;;;27.44;43.29
38786;BME280;24535;45.508;12.252;2023-06-26T02:27:31;101468.03;;;27.41;43.15
38786;BME280;24535;45.508;12.252;2023-06-26T02:29:57;101457.97;;;27.34;43.60
38786;BME280;24535;45.508;12.252;2023-06-26T02:32:22;101461.72;;;27.33;43.76
38786;BME280;24535;45.508;12.252;2023-06-26T02:34:47;101456.31;;;27.33;43.58
38786;BME280;24535;45.508;12.252;2023-06-26T02:37:12;101458.38;;;27.31;43.93
38786;BME280;24535;45.508;12.252;2023-06-26T02:39:38;101455.84;;;27.30;44.07
38786;BME280;24535;45.508;12.252;2023-06-26T02:42:03;101454.56;;;27.26;44.07
38786;BME280;24535;45.508;12.252;2023-06-26T02:44:28;101453.94;;;27.24;44.29
38786;BME280;24535;45.508;12.252;2023-06-26T02:46:54;101451.41;;;27.22;44.57
38786;BME280;24535;45.508;12.252;2023-06-26T02:49:20;101447.88;;;27.22;44.53
38786;BME280;24535;45.508;12.252;2023-06-26T02:51:45;101446.41;;;27.19;44.34
38786;BME280;24535;45.508;12.252;2023-06-26T02:54:10;101444.09;;;27.16;44.41
38786;BME280;24535;45.508;12.252;2023-06-26T02:56:36;101457.81;;;27.15;44.82
38786;BME280;24535;45.508;12.252;2023-06-26T02:59:01;101448.22;;;27.12;44.72
38786;BME280;24535;45.508;12.252;2023-06-26T03:01:26;101457.38;;;27.11;44.84
38786;BME280;24535;45.508;12.252;2023-06-26T03:03:51;101445.50;;;27.12;44.74
38786;BME280;24535;45.508;12.252;2023-06-26T03:06:17;101447.56;;;27.10;44.67
38786;BME280;24535;45.508;12.252;2023-06-26T03:08:43;101449.81;;;27.06;44.54
38786;BME280;24535;45.508;12.252;2023-06-26T03:11:08;101446.91;;;27.08;45.21
38786;BME280;24535;45.508;12.252;2023-06-26T03:13:34;101447.72;;;27.08;45.03
38786;BME280;24535;45.508;12.252;2023-06-26T03:16:00;101455.84;;;27.08;45.25
38786;BME280;24535;45.508;12.252;2023-06-26T03:18:25;101465.50;;;27.11;44.48
38786;BME280;24535;45.508;12.252;2023-06-26T03:21:02;101463.13;;;27.08;44.21
38786;BME280;24535;45.508;12.252;2023-06-26T03:23:28;101465.59;;;27.03;44.13
38786;BME280;24535;45.508;12.252;2023-06-26T03:25:53;101470.16;;;27.02;45.00
38786;BME280;24535;45.508;12.252;2023-06-26T03:28:18;101462.44;;;26.99;45.52
38786;BME280;24535;45.508;12.252;2023-06-26T03:30:44;101462.59;;;26.98;45.13
38786;BME280;24535;45.508;12.252;2023-06-26T03:33:09;101465.31;;;26.98;45.97
38786;BME280;24535;45.508;12.252;2023-06-26T03:35:34;101461.38;;;27.00;45.64
38786;BME280;24535;45.508;12.252;2023-06-26T03:38:00;101464.28;;;26.99;45.92
38786;BME280;24535;45.508;12.252;2023-06-26T03:40:26;101463.00;;;26.95;45.63
38786;BME280;24535;45.508;12.252;2023-06-26T03:42:51;101462.56;;;26.91;46.46
38786;BME280;24535;45.508;12.252;2023-06-26T03:45:16;101461.25;;;26.87;46.54
38786;BME280;24535;45.508;12.252;2023-06-26T03:47:42;101460.81;;;26.83;47.20
38786;BME280;24535;45.508;12.252;2023-06-26T03:50:08;101462.84;;;26.81;46.98
38786;BME280;24535;45.508;12.252;2023-06-26T03:52:33;101455.78;;;26.80;47.45
38786;BME280;24535;45.508;12.252;2023-06-26T03:54:58;101462.22;;;26.79;47.38
38786;BME280;24535;45.508;12.252;2023-06-26T03:57:24;101457.84;;;26.78;47.92
38786;BME280;24535;45.508;12.252;2023-06-26T03:59:49;101464.09;;;26.79;47.65
38786;BME280;24535;45.508;12.252;2023-06-26T04:02:14;101469.03;;;26.75;46.93
38786;BME280;24535;45.508;12.252;2023-06-26T04:04:39;101465.66;;;26.73;48.03
38786;BME280;24535;45.508;12.252;2023-06-26T04:07:05;101465.88;;;26.72;48.35
38786;BME280;24535;45.508;12.252;2023-06-26T04:09:30;101468.78;;;26.70;48.25
38786;BME280;24535;45.508;12.252;2023-06-26T04:11:56;101467.09;;;26.69;48.47
38786;BME280;24535;45.508;12.252;2023-06-26T04:14:21;101471.19;;;26.65;48.04
38786;BME280;24535;45.508;12.252;2023-06-26T04:16:46;101473.91;;;26.65;48.83
38786;BME280;24535;45.508;12.252;2023-06-26T04:19:12;101467.19;;;26.61;48.77
38786;BME280;24535;45.508;12.252;2023-06-26T04:21:37;101478.00;;;26.61;48.51
38786;BME280;24535;45.508;12.252;2023-06-26T04:24:03;101479.72;;;26.62;48.99
38786;BME280;24535;45.508;12.252;2023-06-26T04:26:28;101481.38;;;26.63;48.98
38786;BME280;24535;45.508;12.252;2023-06-26T04:28:54;101485.28;;;26.60;48.78
38786;BME280;24535;45.508;12.252;2023-06-26T04:31:19;101489.03;;;26.59;49.31
38786;BME280;24535;45.508;12.252;2023-06-26T04:33:45;101484.66;;;26.58;49.07
38786;BME280;24535;45.508;12.252;2023-06-26T04:36:15;101490.88;;;26.59;48.97
38786;BME280;24535;45.508;12.252;2023-06-26T04:38:41;101488.81;;;26.61;49.37
38786;BME280;24535;45.508;12.252;2023-06-26T04:41:06;101489.66;;;26.61;49.45
38786;BME280;24535;45.508;12.252;2023-06-26T04:43:32;101487.41;;;26.65;49.37
38786;BME280;24535;45.508;12.252;2023-06-26T04:45:57;101491.63;;;26.68;49.36
38786;BME280;24535;45.508;12.252;2023-06-26T04:48:22;101484.13;;;26.70;49.36
38786;BME280;24535;45.508;12.252;2023-06-26T04:50:47;101490.22;;;26.72;49.56
38786;BME280;24535;45.508;12.252;2023-06-26T04:53:18;101485.44;;;26.74;48.98
38786;BME280;24535;45.508;12.252;2023-06-26T04:55:44;101480.47;;;26.77;48.72
38786;BME280;24535;45.508;12.252;2023-06-26T04:58:09;101476.56;;;26.80;49.24
38786;BME280;24535;45.508;12.252;2023-06-26T05:00:34;101480.09;;;26.80;48.95
38786;BME280;24535;45.508;12.252;2023-06-26T05:03:01;101480.78;;;26.82;49.39
38786;BME280;24535;45.508;12.252;2023-06-26T05:05:26;101481.78;;;26.81;49.56
38786;BME280;24535;45.508;12.252;2023-06-26T05:07:53;101481.78;;;26.81;48.65
38786;BME280;24535;45.508;12.252;2023-06-26T05:10:18;101484.47;;;26.81;48.74
38786;BME280;24535;45.508;12.252;2023-06-26T05:12:44;101484.09;;;26.84;49.64
38786;BME280;24535;45.508;12.252;2023-06-26T05:15:09;101487.06;;;26.90;49.56
38786;BME280;24535;45.508;12.252;2023-06-26T05:17:34;101485.66;;;26.94;49.69
38786;BME280;24535;45.508;12.252;2023-06-26T05:20:00;101481.53;;;26.98;49.85
38786;BME280;24535;45.508;12.252;2023-06-26T05:22:25;101484.69;;;27.01;49.08
38786;BME280;24535;45.508;12.252;2023-06-26T05:24:51;101489.72;;;27.04;49.72
38786;BME280;24535;45.508;12.252;2023-06-26T05:27:19;101492.88;;;27.08;50.40
38786;BME280;24535;45.508;12.252;2023-06-26T05:29:47;101490.28;;;27.15;49.54
38786;BME280;24535;45.508;12.252;2023-06-26T05:32:12;101492.66;;;27.24;49.38
38786;BME280;24535;45.508;12.252;2023-06-26T05:34:42;101488.78;;;27.33;49.66
38786;BME280;24535;45.508;12.252;2023-06-26T05:37:08;101495.53;;;27.44;49.95
38786;BME280;24535;45.508;12.252;2023-06-26T05:39:34;101491.03;;;27.51;48.69
38786;BME280;24535;45.508;12.252;2023-06-26T05:41:59;101489.63;;;27.62;49.04
38786;BME280;24535;45.508;12.252;2023-06-26T05:44:25;101484.28;;;27.69;50.03
38786;BME280;24535;45.508;12.252;2023-06-26T05:46:50;101489.13;;;27.73;50.53
38786;BME280;24535;45.508;12.252;2023-06-26T05:49:15;101494.16;;;27.76;50.30
38786;BME280;24535;45.508;12.252;2023-06-26T05:51:41;101484.78;;;27.79;50.47
38786;BME280;24535;45.508;12.252;2023-06-26T05:54:06;101491.69;;;27.81;50.66
38786;BME280;24535;45.508;12.252;2023-06-26T05:56:32;101486.94;;;27.83;50.93
38786;BME280;24535;45.508;12.252;2023-06-26T05:58:58;101490.47;;;27.84;50.80
38786;BME280;24535;45.508;12.252;2023-06-26T06:01:23;101491.09;;;27.86;51.16
38786;BME280;24535;45.508;12.252;2023-06-26T06:03:49;101490.50;;;27.91;51.26
38786;BME280;24535;45.508;12.252;2023-06-26T06:06:14;101489.06;;;27.95;51.65
38786;BME280;24535;45.508;12.252;2023-06-26T06:08:41;101498.47;;;27.99;51.35
38786;BME280;24535;45.508;12.252;2023-06-26T06:11:06;101498.28;;;28.00;51.27
38786;BME280;24535;45.508;12.252;2023-06-26T06:13:31;101497.03;;;28.03;51.43
38786;BME280;24535;45.508;12.252;2023-06-26T06:15:57;101494.16;;;28.04;51.66
38786;BME280;24535;45.508;12.252;2023-06-26T06:18:22;101491.88;;;28.08;51.53
38786;BME280;24535;45.508;12.252;2023-06-26T06:20:47;101487.72;;;28.12;51.49
38786;BME280;24535;45.508;12.252;2023-06-26T11:23:07;101402.03;;;30.43;45.46
38786;BME280;24535;45.508;12.252;2023-06-26T11:25:37;101403.78;;;30.63;45.33
38786;BME280;24535;45.508;12.252;2023-06-26T11:28:06;101394.28;;;30.78;44.50
38786;BME280;24535;45.508;12.252;2023-06-26T11:30:34;101398.34;;;30.94;44.61
38786;BME280;24535;45.508;12.252;2023-06-26T11:33:05;101391.38;;;31.05;44.29
38786;BME280;24535;45.508;12.252;2023-06-26T11:35:32;101383.97;;;31.12;44.40
38786;BME280;24535;45.508;12.252;2023-06-26T11:38:01;101396.00;;;31.23;43.90
38786;BME280;24535;45.508;12.252;2023-06-26T11:40:31;101392.03;;;31.25;43.86
38786;BME280;24535;45.508;12.252;2023-06-26T11:42:58;101388.41;;;31.32;43.62
38786;BME280;24535;45.508;12.252;2023-06-26T11:45:27;101388.38;;;31.38;43.78
38786;BME280;24535;45.508;12.252;2023-06-26T11:47:54;101389.81;;;31.41;43.70
38786;BME280;24535;45.508;12.252;2023-06-26T11:50:20;101378.63;;;31.49;43.69
38786;BME280;24535;45.508;12.252;2023-06-26T11:52:53;101376.50;;;31.51;43.43
38786;BME280;24535;45.508;12.252;2023-06-26T11:55:19;101377.13;;;31.53;43.00
38786;BME280;24535;45.508;12.252;2023-06-26T11:57:57;101377.50;;;31.57;43.18
38786;BME280;24535;45.508;12.252;2023-06-26T12:00:23;101369.31;;;31.57;43.31
38786;BME280;24535;45.508;12.252;2023-06-26T12:02:49;101377.88;;;31.60;42.98
38786;BME280;24535;45.508;12.252;2023-06-26T12:05:18;101377.66;;;31.62;43.22
38786;BME280;24535;45.508;12.252;2023-06-26T12:07:45;101373.84;;;31.63;42.91
38786;BME280;24535;45.508;12.252;2023-06-26T12:10:11;101374.47;;;31.65;42.73
38786;BME280;24535;45.508;12.252;2023-06-26T12:12:38;101376.97;;;31.66;42.80
38786;BME280;24535;45.508;12.252;2023-06-26T12:15:08;101375.91;;;31.67;42.54
38786;BME280;24535;45.508;12.252;2023-06-26T12:17:38;101374.84;;;31.68;42.45
38786;BME280;24535;45.508;12.252;2023-06-26T12:20:18;101369.75;;;31.72;42.10
38786;BME280;24535;45.508;12.252;2023-06-26T12:22:45;101372.03;;;31.75;42.58
38786;BME280;24535;45.508;12.252;2023-06-26T12:25:11;101359.25;;;31.75;42.29
38786;BME280;24535;45.508;12.252;2023-06-26T12:27:37;101365.06;;;31.79;42.22
38786;BME280;24535;45.508;12.252;2023-06-26T12:30:04;101359.78;;;31.84;42.10
38786;BME280;24535;45.508;12.252;2023-06-26T12:32:30;101364.78;;;31.87;42.19
38786;BME280;24535;45.508;12.252;2023-06-26T12:34:57;101356.63;;;31.87;42.13
38786;BME280;24535;45.508;12.252;2023-06-26T12:37:22;101356.16;;;31.90;41.90
38786;BME280;24535;45.508;12.252;2023-06-26T12:42:17;101360.69;;;31.96;41.59
38786;BME280;24535;45.508;12.252;2023-06-26T12:44:43;101354.88;;;31.93;41.58
38786;BME280;24535;45.508;12.252;2023-06-26T12:47:09;101358.06;;;31.90;41.85
38786;BME280;24535;45.508;12.252;2023-06-26T12:49:37;101356.75;;;31.92;42.09
38786;BME280;24535;45.508;12.252;2023-06-26T12:52:05;101359.13;;;31.89;41.96
38786;BME280;24535;45.508;12.252;2023-06-26T12:54:31;101357.00;;;31.91;41.53
38786;BME280;24535;45.508;12.252;2023-06-26T12:56:58;101360.34;;;31.93;41.86
38786;BME280;24535;45.508;12.252;2023-06-26T12:59:23;101359.28;;;31.94;42.04
38786;BME280;24535;45.508;12.252;2023-06-26T13:01:49;101358.66;;;31.92;41.75
38786;BME280;24535;45.508;12.252;2023-06-26T13:04:15;101350.72;;;31.90;42.00
38786;BME280;24535;45.508;12.252;2023-06-26T13:06:41;101350.72;;;31.90;42.50
38786;BME280;24535;45.508;12.252;2023-06-26T13:09:06;101351.53;;;31.91;42.21
38786;BME280;24535;45.508;12.252;2023-06-26T13:11:32;101347.63;;;31.87;42.17
38786;BME280;24535;45.508;12.252;2023-06-26T13:13:58;101340.25;;;31.87;42.47
38786;BME280;24535;45.508;12.252;2023-06-26T13:16:24;101346.16;;;31.84;42.36
38786;BME280;24535;45.508;12.252;2023-06-26T13:18:50;101339.03;;;31.83;42.29
38786;BME280;24535;45.508;12.252;2023-06-26T13:21:16;101341.91;;;31.88;42.26
38786;BME280;24535;45.508;12.252;2023-06-26T13:23:42;101336.00;;;31.91;42.02
38786;BME280;24535;45.508;12.252;2023-06-26T13:26:07;101342.47;;;31.97;41.89
38786;BME280;24535;45.508;12.252;2023-06-26T13:28:33;101332.59;;;31.96;41.77
38786;BME280;24535;45.508;12.252;2023-06-26T13:30:59;101336.00;;;31.91;41.52
38786;BME280;24535;45.508;12.252;2023-06-26T13:33:24;101332.72;;;31.89;42.08
38786;BME280;24535;45.508;12.252;2023-06-26T13:35:52;101319.66;;;31.91;41.96
38786;BME280;24535;45.508;12.252;2023-06-26T13:38:21;101332.84;;;31.94;41.81
38786;BME280;24535;45.508;12.252;2023-06-26T13:40:53;101326.56;;;31.94;41.78
38786;BME280;24535;45.508;12.252;2023-06-26T13:43:21;101333.66;;;31.95;42.05
38786;BME280;24535;45.508;12.252;2023-06-26T13:45:47;101323.69;;;31.89;42.10
38786;BME280;24535;45.508;12.252;2023-06-26T13:48:13;101325.34;;;31.90;41.63
38786;BME280;24535;45.508;12.252;2023-06-26T13:50:38;101323.09;;;31.87;42.07
38786;BME280;24535;45.508;12.252;2023-06-26T13:53:04;101318.69;;;31.86;41.99
38786;BME280;24535;45.508;12.252;2023-06-26T13:55:29;101317.63;;;31.87;42.08
38786;BME280;24535;45.508;12.252;2023-06-26T13:57:56;101317.38;;;31.88;42.04
38786;BME280;24535;45.508;12.252;2023-06-26T14:00:21;101314.91;;;31.87;42.04
38786;BME280;24535;45.508;12.252;2023-06-26T14:02:48;101317.03;;;31.85;42.03
38786;BME280;24535;45.508;12.252;2023-06-26T14:05:14;101321.00;;;31.82;42.09
38786;BME280;24535;45.508;12.252;2023-06-26T14:07:39;101316.00;;;31.79;42.51
38786;BME280;24535;45.508;12.252;2023-06-26T14:10:05;101319.56;;;31.80;42.44
38786;BME280;24535;45.508;12.252;2023-06-26T14:12:32;101314.34;;;31.78;42.30
38786;BME280;24535;45.508;12.252;2023-06-26T14:14:58;101316.47;;;31.76;42.20
38786;BME280;24535;45.508;12.252;2023-06-26T14:17:24;101316.47;;;31.76;42.48
38786;BME280;24535;45.508;12.252;2023-06-26T14:19:53;101307.94;;;31.72;42.17
38786;BME280;24535;45.508;12.252;2023-06-26T14:22:19;101306.75;;;31.68;41.84
38786;BME280;24535;45.508;12.252;2023-06-26T14:24:45;101309.91;;;31.65;42.07
38786;BME280;24535;45.508;12.252;2023-06-26T14:27:10;101304.66;;;31.64;42.07
38786;BME280;24535;45.508;12.252;2023-06-26T14:29:36;101298.41;;;31.63;42.02
38786;BME280;24535;45.508;12.252;2023-06-26T14:32:03;101295.09;;;31.61;42.08
38786;BME280;24535;45.508;12.252;2023-06-26T14:34:29;101297.19;;;31.59;42.33
38786;BME280;24535;45.508;12.252;2023-06-26T14:36:55;101289.00;;;31.59;42.07
38786;BME280;24535;45.508;12.252;2023-06-26T14:39:20;101297.66;;;31.56;42.15
38786;BME280;24535;45.508;12.252;2023-06-26T14:41:46;101294.69;;;31.58;42.90
38786;BME280;24535;45.508;12.252;2023-06-26T14:44:13;101292.22;;;31.56;42.35
38786;BME280;24535;45.508;12.252;2023-06-26T14:46:39;101287.59;;;31.57;42.34
38786;BME280;24535;45.508;12.252;2023-06-26T14:49:04;101290.09;;;31.58;42.48
38786;BME280;24535;45.508;12.252;2023-06-26T14:51:30;101291.97;;;31.58;42.47
38786;BME280;24535;45.508;12.252;2023-06-26T14:53:55;101293.63;;;31.59;42.22
38786;BME280;24535;45.508;12.252;2023-06-26T14:56:21;101299.09;;;31.59;42.34
38786;BME280;24535;45.508;12.252;2023-06-26T14:58:46;101295.28;;;31.60;42.53
38786;BME280;24535;45.508;12.252;2023-06-26T15:01:16;101289.63;;;31.61;42.84
38786;BME280;24535;45.508;12.252;2023-06-26T15:03:42;101280.25;;;31.57;42.99
38786;BME280;24535;45.508;12.252;2023-06-26T15:06:07;101285.69;;;31.57;42.89
38786;BME280;24535;45.508;12.252;2023-06-26T15:08:34;101283.81;;;31.58;42.76
38786;BME280;24535;45.508;12.252;2023-06-26T15:11:01;101289.84;;;31.60;42.47
38786;BME280;24535;45.508;12.252;2023-06-26T15:13:27;101281.31;;;31.56;42.82
38786;BME280;24535;45.508;12.252;2023-06-26T15:15:52;101286.53;;;31.58;42.72
38786;BME280;24535;45.508;12.252;2023-06-26T15:18:18;101286.28;;;31.59;42.73
38786;BME280;24535;45.508;12.252;2023-06-26T15:20:43;101275.00;;;31.56;42.69
38786;BME280;24535;45.508;12.252;2023-06-26T15:23:08;101279.63;;;31.55;42.55
38786;BME280;24535;45.508;12.252;2023-06-26T15:25:34;101277.38;;;31.52;42.61
38786;BME280;24535;45.508;12.252;2023-06-26T15:28:02;101280.69;;;31.54;42.69
38786;BME280;24535;45.508;12.252;2023-06-26T15:30:28;101281.78;;;31.53;42.84
38786;BME280;24535;45.508;12.252;2023-06-26T15:32:53;101281.16;;;31.51;42.86
38786;BME280;24535;45.508;12.252;2023-06-26T15:35:19;101285.56;;;31.52;42.75
38786;BME280;24535;45.508;12.252;2023-06-26T15:37:44;101287.81;;;31.55;42.45
38786;BME280;24535;45.508;12.252;2023-06-26T15:40:11;101279.88;;;31.54;42.64
38786;BME280;24535;45.508;12.252;2023-06-26T15:42:47;101274.44;;;31.54;42.79
38786;BME280;24535;45.508;12.252;2023-06-26T15:45:14;101270.25;;;31.51;42.69
38786;BME280;24535;45.508;12.252;2023-06-26T15:47:40;101263.97;;;31.50;42.54
38786;BME280;24535;45.508;12.252;2023-06-26T15:50:07;101271.94;;;31.52;42.42
38786;BME280;24535;45.508;12.252;2023-06-26T15:52:32;101272.78;;;31.52;42.48
38786;BME280;24535;45.508;12.252;2023-06-26T15:54:58;101265.44;;;31.53;42.71
38786;BME280;24535;45.508;12.252;2023-06-26T15:57:23;101263.78;;;31.52;42.61
38786;BME280;24535;45.508;12.252;2023-06-26T15:59:49;101265.63;;;31.51;42.63
38786;BME280;24535;45.508;12.252;2023-06-26T16:02:15;101265.19;;;31.55;42.71
38786;BME280;24535;45.508;12.252;2023-06-26T16:04:40;101258.91;;;31.54;42.71
38786;BME280;24535;45.508;12.252;2023-06-26T16:07:05;101264.97;;;31.56;42.35
38786;BME280;24535;45.508;12.252;2023-06-26T16:09:31;101254.06;;;31.56;42.50
38786;BME280;24535;45.508;12.252;2023-06-26T16:11:56;101256.56;;;31.58;42.62
38786;BME280;24535;45.508;12.252;2023-06-26T16:14:22;101253.22;;;31.56;42.62
38786;BME280;24535;45.508;12.252;2023-06-26T16:16:47;101261.78;;;31.59;42.48
38786;BME280;24535;45.508;12.252;2023-06-26T16:19:13;101250.88;;;31.59;42.28
38786;BME280;24535;45.508;12.252;2023-06-26T16:21:38;101258.47;;;31.57;42.49
38786;BME280;24535;45.508;12.252;2023-06-26T16:24:04;101244.22;;;31.55;42.78
38786;BME280;24535;45.508;12.252;2023-06-26T16:26:30;101254.28;;;31.55;42.54
38786;BME280;24535;45.508;12.252;2023-06-26T16:28:55;101258.66;;;31.56;42.84
38786;BME280;24535;45.508;12.252;2023-06-26T16:31:21;101254.06;;;31.56;42.78
38786;BME280;24535;45.508;12.252;2023-06-26T16:33:46;101255.34;;;31.54;42.49
38786;BME280;24535;45.508;12.252;2023-06-26T16:36:12;101253.09;;;31.50;42.80
38786;BME280;24535;45.508;12.252;2023-06-26T16:38:37;101253.91;;;31.51;42.43
38786;BME280;24535;45.508;12.252;2023-06-26T16:41:06;101256.88;;;31.49;42.43
38786;BME280;24535;45.508;12.252;2023-06-26T16:43:32;101260.44;;;31.50;42.80
38786;BME280;24535;45.508;12.252;2023-06-26T16:45:58;101255.22;;;31.48;42.37
38786;BME280;24535;45.508;12.252;2023-06-26T16:48:23;101254.59;;;31.46;42.17
38786;BME280;24535;45.508;12.252;2023-06-26T16:50:49;101255.66;;;31.45;42.37
38786;BME280;24535;45.508;12.252;2023-06-26T16:53:15;101241.44;;;31.43;42.13
38786;BME280;24535;45.508;12.252;2023-06-26T16:55:41;101245.59;;;31.46;42.54
38786;BME280;24535;45.508;12.252;2023-06-26T16:58:06;101241.44;;;31.43;42.70
38786;BME280;24535;45.508;12.252;2023-06-26T17:00:32;101246.66;;;31.45;42.53
38786;BME280;24535;45.508;12.252;2023-06-26T17:03:04;101243.94;;;31.45;42.45
38786;BME280;24535;45.508;12.252;2023-06-26T17:05:35;101243.13;;;31.44;42.70
38786;BME280;24535;45.508;12.252;2023-06-26T17:08:00;101243.94;;;31.45;42.90
38786;BME280;24535;45.508;12.252;2023-06-26T17:10:26;101243.31;;;31.43;42.83
38786;BME280;24535;45.508;12.252;2023-06-26T17:12:52;101244.41;;;31.42;42.58
38786;BME280;24535;45.508;12.252;2023-06-26T17:15:17;101253.19;;;31.44;43.13
38786;BME280;24535;45.508;12.252;2023-06-26T17:17:43;101242.75;;;31.41;42.70
38786;BME280;24535;45.508;12.252;2023-06-26T17:20:08;101241.66;;;31.42;43.02
38786;BME280;24535;45.508;12.252;2023-06-26T17:22:37;101245.66;;;31.39;43.03
38786;BME280;24535;45.508;12.252;2023-06-26T17:25:03;101245.22;;;31.42;43.02
38786;BME280;24535;45.508;12.252;2023-06-26T17:27:30;101240.00;;;31.41;43.00
38786;BME280;24535;45.508;12.252;2023-06-26T17:29:56;101237.28;;;31.41;43.02
38786;BME280;24535;45.508;12.252;2023-06-26T17:32:22;101245.22;;;31.42;43.28
38786;BME280;24535;45.508;12.252;2023-06-26T17:34:48;101245.47;;;31.41;42.94
38786;BME280;24535;45.508;12.252;2023-06-26T17:37:13;101248.78;;;31.43;43.31
38786;BME280;24535;45.508;12.252;2023-06-26T17:39:39;101236.47;;;31.40;43.22
38786;BME280;24535;45.508;12.252;2023-06-26T17:42:04;101241.66;;;31.42;43.25
38786;BME280;24535;45.508;12.252;2023-06-26T17:44:30;101239.19;;;31.40;43.15
38786;BME280;24535;45.508;12.252;2023-06-26T17:46:56;101245.47;;;31.41;43.31